Terminal Aerodrome Forecast
Issued by NWS

Home | Current Version | Previous Version | Graphics & Text | Print | Product List | Glossary On
Versions: 1 2 3 4 5 6 7 8 9 10 11 12 13 14 15 16 17 18 19
019
FTUS41 KCLE 232332
TAFFDY
TAF
KFDY 232332Z 2400/2424 05005KT P6SM OVC070
     FM240200 07005KT 5SM -SHRA OVC035
      TEMPO 2402/2405 3SM -SHRA BR OVC015
     FM240900 16009KT P6SM OVC025
     FM241300 18013KT P6SM BKN045
     FM241700 20018G27KT P6SM SCT040=

USA.gov is the U.S. government's official web portal to all federal, state and local government web resources and services.